sensor_id;sensor_type;location;lat;lon;timestamp;temperature;humidity
69009;SHT31;56065;52.472;13.380;2023-04-06T00:00:23;5.45;67.78
69009;SHT31;56065;52.472;13.380;2023-04-06T00:02:49;5.37;68.07
69009;SHT31;56065;52.472;13.380;2023-04-06T00:05:14;5.39;67.99
69009;SHT31;56065;52.472;13.380;2023-04-06T00:07:40;5.31;68.47
69009;SHT31;56065;52.472;13.380;2023-04-06T00:10:06;5.27;68.36
69009;SHT31;56065;52.472;13.380;2023-04-06T00:12:31;5.28;68.45
69009;SHT31;56065;52.472;13.380;2023-04-06T00:14:57;5.34;68.05
69009;SHT31;56065;52.472;13.380;2023-04-06T00:17:22;5.37;68.10
69009;SHT31;56065;52.472;13.380;2023-04-06T00:19:48;5.34;68.24
69009;SHT31;56065;52.472;13.380;2023-04-06T00:22:13;5.42;67.73
69009;SHT31;56065;52.472;13.380;2023-04-06T00:24:39;5.38;68.09
69009;SHT31;56065;52.472;13.380;2023-04-06T00:27:04;5.45;67.63
69009;SHT31;56065;52.472;13.380;2023-04-06T00:29:30;5.48;67.77
69009;SHT31;56065;52.472;13.380;2023-04-06T00:31:55;5.45;67.55
69009;SHT31;56065;52.472;13.380;2023-04-06T00:34:21;5.32;68.07
69009;SHT31;56065;52.472;13.380;2023-04-06T00:36:46;5.38;67.76
69009;SHT31;56065;52.472;13.380;2023-04-06T00:39:11;5.37;67.75
69009;SHT31;56065;52.472;13.380;2023-04-06T00:41:38;5.28;67.94
69009;SHT31;56065;52.472;13.380;2023-04-06T00:44:04;5.34;68.02
69009;SHT31;56065;52.472;13.380;2023-04-06T00:46:30;5.30;68.07
69009;SHT31;56065;52.472;13.380;2023-04-06T00:48:56;5.23;68.24
69009;SHT31;56065;52.472;13.380;2023-04-06T00:51:22;5.23;68.19
69009;SHT31;56065;52.472;13.380;2023-04-06T00:53:47;5.27;67.99
69009;SHT31;56065;52.472;13.380;2023-04-06T00:56:13;5.13;68.71
69009;SHT31;56065;52.472;13.380;2023-04-06T00:58:38;5.00;69.09
69009;SHT31;56065;52.472;13.380;2023-04-06T01:01:05;4.87;69.60
69009;SHT31;56065;52.472;13.380;2023-04-06T01:03:31;4.81;69.75
69009;SHT31;56065;52.472;13.380;2023-04-06T01:05:56;4.96;69.05
69009;SHT31;56065;52.472;13.380;2023-04-06T01:08:24;4.91;69.26
69009;SHT31;56065;52.472;13.380;2023-04-06T01:10:50;5.01;68.51
69009;SHT31;56065;52.472;13.380;2023-04-06T01:13:15;5.03;68.97
69009;SHT31;56065;52.472;13.380;2023-04-06T01:15:41;5.04;68.80
69009;SHT31;56065;52.472;13.380;2023-04-06T01:18:10;5.11;68.92
69009;SHT31;56065;52.472;13.380;2023-04-06T01:20:36;5.18;68.71
69009;SHT31;56065;52.472;13.380;2023-04-06T01:23:01;5.21;69.01
69009;SHT31;56065;52.472;13.380;2023-04-06T01:25:27;5.26;68.79
69009;SHT31;56065;52.472;13.380;2023-04-06T01:27:52;5.26;68.50
69009;SHT31;56065;52.472;13.380;2023-04-06T01:30:18;5.24;68.79
69009;SHT31;56065;52.472;13.380;2023-04-06T01:32:44;5.03;69.52
69009;SHT31;56065;52.472;13.380;2023-04-06T01:35:10;4.97;69.53
69009;SHT31;56065;52.472;13.380;2023-04-06T01:37:36;4.97;69.11
69009;SHT31;56065;52.472;13.380;2023-04-06T01:40:01;5.01;68.64
69009;SHT31;56065;52.472;13.380;2023-04-06T01:42:26;4.77;69.81
69009;SHT31;56065;52.472;13.380;2023-04-06T01:44:53;4.84;69.39
69009;SHT31;56065;52.472;13.380;2023-04-06T01:47:18;4.73;70.02
69009;SHT31;56065;52.472;13.380;2023-04-06T01:49:43;4.76;69.78
69009;SHT31;56065;52.472;13.380;2023-04-06T01:52:09;4.69;69.68
69009;SHT31;56065;52.472;13.380;2023-04-06T01:54:34;4.70;69.74
69009;SHT31;56065;52.472;13.380;2023-04-06T01:57:00;4.70;69.41
69009;SHT31;56065;52.472;13.380;2023-04-06T01:59:25;4.65;69.94
69009;SHT31;56065;52.472;13.380;2023-04-06T02:01:51;4.65;69.83
69009;SHT31;56065;52.472;13.380;2023-04-06T02:04:16;4.60;70.12
69009;SHT31;56065;52.472;13.380;2023-04-06T02:06:41;4.53;70.08
69009;SHT31;56065;52.472;13.380;2023-04-06T02:09:07;4.56;70.09
69009;SHT31;56065;52.472;13.380;2023-04-06T02:11:32;4.55;70.05
69009;SHT31;56065;52.472;13.380;2023-04-06T02:13:58;4.55;70.24
69009;SHT31;56065;52.472;13.380;2023-04-06T02:16:25;4.56;70.05
69009;SHT31;56065;52.472;13.380;2023-04-06T02:18:50;4.52;69.98
69009;SHT31;56065;52.472;13.380;2023-04-06T02:21:16;4.46;69.92
69009;SHT31;56065;52.472;13.380;2023-04-06T02:23:45;4.39;70.10
69009;SHT31;56065;52.472;13.380;2023-04-06T02:26:11;4.34;70.21
69009;SHT31;56065;52.472;13.380;2023-04-06T02:28:36;4.29;70.16
69009;SHT31;56065;52.472;13.380;2023-04-06T02:31:01;4.18;70.67
69009;SHT31;56065;52.472;13.380;2023-04-06T02:33:27;4.17;70.80
69009;SHT31;56065;52.472;13.380;2023-04-06T02:35:52;4.17;70.48
69009;SHT31;56065;52.472;13.380;2023-04-06T02:38:17;4.12;70.82
69009;SHT31;56065;52.472;13.380;2023-04-06T02:40:43;4.02;71.07
69009;SHT31;56065;52.472;13.380;2023-04-06T02:43:08;4.04;70.89
69009;SHT31;56065;52.472;13.380;2023-04-06T02:45:33;3.94;71.01
69009;SHT31;56065;52.472;13.380;2023-04-06T02:47:59;3.86;71.07
69009;SHT31;56065;52.472;13.380;2023-04-06T02:50:25;3.77;71.18
69009;SHT31;56065;52.472;13.380;2023-04-06T02:52:52;3.70;71.83
69009;SHT31;56065;52.472;13.380;2023-04-06T02:55:17;3.66;71.50
69009;SHT31;56065;52.472;13.380;2023-04-06T02:57:44;3.56;72.16
69009;SHT31;56065;52.472;13.380;2023-04-06T03:00:10;3.52;72.44
69009;SHT31;56065;52.472;13.380;2023-04-06T03:02:36;3.46;72.63
69009;SHT31;56065;52.472;13.380;2023-04-06T03:05:02;3.37;73.03
69009;SHT31;56065;52.472;13.380;2023-04-06T03:07:28;3.37;73.25
69009;SHT31;56065;52.472;13.380;2023-04-06T03:09:54;3.36;73.36
69009;SHT31;56065;52.472;13.380;2023-04-06T03:12:19;3.32;73.42
69009;SHT31;56065;52.472;13.380;2023-04-06T03:14:45;3.27;74.28
69009;SHT31;56065;52.472;13.380;2023-04-06T03:17:10;3.25;74.05
69009;SHT31;56065;52.472;13.380;2023-04-06T03:19:36;3.26;74.22
69009;SHT31;56065;52.472;13.380;2023-04-06T03:22:01;3.20;74.31
69009;SHT31;56065;52.472;13.380;2023-04-06T03:24:27;3.18;74.40
69009;SHT31;56065;52.472;13.380;2023-04-06T03:26:52;3.16;74.25
69009;SHT31;56065;52.472;13.380;2023-04-06T03:29:18;3.12;74.14
69009;SHT31;56065;52.472;13.380;2023-04-06T03:31:43;3.05;74.61
69009;SHT31;56065;52.472;13.380;2023-04-06T03:34:08;3.02;74.40
69009;SHT31;56065;52.472;13.380;2023-04-06T03:36:34;2.98;75.92
69009;SHT31;56065;52.472;13.380;2023-04-06T03:39:00;3.04;75.29
69009;SHT31;56065;52.472;13.380;2023-04-06T03:41:25;3.02;74.97
69009;SHT31;56065;52.472;13.380;2023-04-06T03:43:52;2.99;75.17
69009;SHT31;56065;52.472;13.380;2023-04-06T03:46:17;3.02;75.15
69009;SHT31;56065;52.472;13.380;2023-04-06T03:48:42;2.98;74.70
69009;SHT31;56065;52.472;13.380;2023-04-06T03:51:08;2.94;75.26
69009;SHT31;56065;52.472;13.380;2023-04-06T03:53:33;2.88;74.95
69009;SHT31;56065;52.472;13.380;2023-04-06T03:55:58;2.87;75.13
69009;SHT31;56065;52.472;13.380;2023-04-06T03:58:24;2.85;74.99
69009;SHT31;56065;52.472;13.380;2023-04-06T04:00:50;2.81;74.85
69009;SHT31;56065;52.472;13.380;2023-04-06T04:03:15;2.81;75.12
69009;SHT31;56065;52.472;13.380;2023-04-06T04:05:40;2.77;75.45
69009;SHT31;56065;52.472;13.380;2023-04-06T04:08:06;2.78;75.82
69009;SHT31;56065;52.472;13.380;2023-04-06T04:10:31;2.74;75.62
69009;SHT31;56065;52.472;13.380;2023-04-06T04:12:56;2.73;75.74
69009;SHT31;56065;52.472;13.380;2023-04-06T04:15:22;2.71;75.56
69009;SHT31;56065;52.472;13.380;2023-04-06T04:17:47;2.71;75.60
69009;SHT31;56065;52.472;13.380;2023-04-06T04:20:15;2.71;75.92
69009;SHT31;56065;52.472;13.380;2023-04-06T04:22:40;2.70;75.70
69009;SHT31;56065;52.472;13.380;2023-04-06T04:25:06;2.67;75.79
69009;SHT31;56065;52.472;13.380;2023-04-06T04:27:31;2.67;75.82
69009;SHT31;56065;52.472;13.380;2023-04-06T04:29:57;2.67;75.91
69009;SHT31;56065;52.472;13.380;2023-04-06T04:32:22;2.64;76.05
69009;SHT31;56065;52.472;13.380;2023-04-06T04:34:48;2.65;76.05
69009;SHT31;56065;52.472;13.380;2023-04-06T04:37:13;2.62;76.16
69009;SHT31;56065;52.472;13.380;2023-04-06T04:39:38;2.62;76.08
69009;SHT31;56065;52.472;13.380;2023-04-06T04:42:04;2.60;76.29
69009;SHT31;56065;52.472;13.380;2023-04-06T04:44:30;2.62;75.81
69009;SHT31;56065;52.472;13.380;2023-04-06T04:46:55;2.60;76.12
69009;SHT31;56065;52.472;13.380;2023-04-06T04:49:21;2.61;76.43
69009;SHT31;56065;52.472;13.380;2023-04-06T04:51:47;2.67;76.39
69009;SHT31;56065;52.472;13.380;2023-04-06T04:54:12;2.68;75.97
69009;SHT31;56065;52.472;13.380;2023-04-06T04:56:38;2.74;75.75
69009;SHT31;56065;52.472;13.380;2023-04-06T04:59:03;2.77;76.09
69009;SHT31;56065;52.472;13.380;2023-04-06T05:01:28;2.83;76.11
69009;SHT31;56065;52.472;13.380;2023-04-06T05:03:54;2.87;76.01
69009;SHT31;56065;52.472;13.380;2023-04-06T05:06:19;2.88;75.99
69009;SHT31;56065;52.472;13.380;2023-04-06T05:08:45;2.92;76.13
69009;SHT31;56065;52.472;13.380;2023-04-06T05:11:10;2.98;76.63
69009;SHT31;56065;52.472;13.380;2023-04-06T05:13:36;2.96;77.07
69009;SHT31;56065;52.472;13.380;2023-04-06T05:16:01;3.02;77.19
69009;SHT31;56065;52.472;13.380;2023-04-06T05:18:27;3.05;77.13
69009;SHT31;56065;52.472;13.380;2023-04-06T05:20:52;3.09;77.38
69009;SHT31;56065;52.472;13.380;2023-04-06T05:23:18;3.15;77.44
69009;SHT31;56065;52.472;13.380;2023-04-06T05:25:43;3.18;77.61
69009;SHT31;56065;52.472;13.380;2023-04-06T05:28:09;3.26;77.52
69009;SHT31;56065;52.472;13.380;2023-04-06T05:30:34;3.32;77.29
69009;SHT31;56065;52.472;13.380;2023-04-06T05:33:01;3.37;77.24
69009;SHT31;56065;52.472;13.380;2023-04-06T05:35:26;3.46;77.10
69009;SHT31;56065;52.472;13.380;2023-04-06T05:37:52;3.52;77.00
69009;SHT31;56065;52.472;13.380;2023-04-06T05:40:17;3.63;76.94
69009;SHT31;56065;52.472;13.380;2023-04-06T05:42:42;3.67;76.68
69009;SHT31;56065;52.472;13.380;2023-04-06T05:45:09;3.78;76.40
69009;SHT31;56065;52.472;13.380;2023-04-06T05:47:37;3.95;76.23
69009;SHT31;56065;52.472;13.380;2023-04-06T05:50:03;4.81;75.34
69009;SHT31;56065;52.472;13.380;2023-04-06T05:52:28;6.30;71.90
69009;SHT31;56065;52.472;13.380;2023-04-06T05:54:54;7.74;68.22
69009;SHT31;56065;52.472;13.380;2023-04-06T05:57:19;9.04;65.28
69009;SHT31;56065;52.472;13.380;2023-04-06T05:59:45;9.99;62.07
69009;SHT31;56065;52.472;13.380;2023-04-06T06:02:10;11.18;61.16
69009;SHT31;56065;52.472;13.380;2023-04-06T06:04:36;11.97;58.56
69009;SHT31;56065;52.472;13.380;2023-04-06T06:07:01;12.75;57.73
69009;SHT31;56065;52.472;13.380;2023-04-06T06:09:26;13.02;52.96
69009;SHT31;56065;52.472;13.380;2023-04-06T06:11:52;13.81;53.28
69009;SHT31;56065;52.472;13.380;2023-04-06T06:14:17;13.90;51.39
69009;SHT31;56065;52.472;13.380;2023-04-06T06:16:43;14.83;51.39
69009;SHT31;56065;52.472;13.380;2023-04-06T06:19:08;15.46;50.33
69009;SHT31;56065;52.472;13.380;2023-04-06T06:21:34;16.13;48.86
69009;SHT31;56065;52.472;13.380;2023-04-06T06:23:59;16.36;47.15
69009;SHT31;56065;52.472;13.380;2023-04-06T06:26:25;16.47;45.88
69009;SHT31;56065;52.472;13.380;2023-04-06T06:28:50;16.68;46.69
69009;SHT31;56065;52.472;13.380;2023-04-06T06:31:15;16.89;45.72
69009;SHT31;56065;52.472;13.380;2023-04-06T06:33:41;17.13;45.40
69009;SHT31;56065;52.472;13.380;2023-04-06T06:36:07;17.28;45.13
69009;SHT31;56065;52.472;13.380;2023-04-06T06:38:32;17.79;45.13
69009;SHT31;56065;52.472;13.380;2023-04-06T06:40:58;18.16;43.57
69009;SHT31;56065;52.472;13.380;2023-04-06T06:43:23;18.63;42.75
69009;SHT31;56065;52.472;13.380;2023-04-06T06:45:49;18.81;42.46
69009;SHT31;56065;52.472;13.380;2023-04-06T06:48:15;19.14;42.10
69009;SHT31;56065;52.472;13.380;2023-04-06T06:50:40;19.70;41.81
69009;SHT31;56065;52.472;13.380;2023-04-06T06:53:06;20.03;40.91
69009;SHT31;56065;52.472;13.380;2023-04-06T06:55:31;20.84;39.84
69009;SHT31;56065;52.472;13.380;2023-04-06T06:57:57;21.35;39.04
69009;SHT31;56065;52.472;13.380;2023-04-06T07:00:22;21.74;38.53
69009;SHT31;56065;52.472;13.380;2023-04-06T07:02:48;21.98;37.97
69009;SHT31;56065;52.472;13.380;2023-04-06T07:05:14;21.94;36.87
69009;SHT31;56065;52.472;13.380;2023-04-06T07:07:40;22.14;37.45
69009;SHT31;56065;52.472;13.380;2023-04-06T07:10:08;22.12;37.81
69009;SHT31;56065;52.472;13.380;2023-04-06T07:12:33;23.04;36.56
69009;SHT31;56065;52.472;13.380;2023-04-06T07:14:59;23.33;35.86
69009;SHT31;56065;52.472;13.380;2023-04-06T07:17:24;23.72;35.83
69009;SHT31;56065;52.472;13.380;2023-04-06T07:19:50;23.92;35.34
69009;SHT31;56065;52.472;13.380;2023-04-06T07:22:16;24.22;34.87
69009;SHT31;56065;52.472;13.380;2023-04-06T07:24:41;24.36;34.74
69009;SHT31;56065;52.472;13.380;2023-04-06T07:27:07;24.95;33.93
69009;SHT31;56065;52.472;13.380;2023-04-06T07:29:32;24.40;33.27
69009;SHT31;56065;52.472;13.380;2023-04-06T07:31:57;24.01;34.24
69009;SHT31;56065;52.472;13.380;2023-04-06T07:34:23;25.10;33.69
69009;SHT31;56065;52.472;13.380;2023-04-06T07:36:49;25.47;33.18
69009;SHT31;56065;52.472;13.380;2023-04-06T07:39:14;25.46;31.92
69009;SHT31;56065;52.472;13.380;2023-04-06T07:41:40;25.05;32.70
69009;SHT31;56065;52.472;13.380;2023-04-06T07:44:05;25.35;32.71
69009;SHT31;56065;52.472;13.380;2023-04-06T07:46:31;25.77;31.70
69009;SHT31;56065;52.472;13.380;2023-04-06T07:48:57;25.93;32.51
69009;SHT31;56065;52.472;13.380;2023-04-06T07:51:23;23.50;32.74
69009;SHT31;56065;52.472;13.380;2023-04-06T07:53:50;25.53;32.12
69009;SHT31;56065;52.472;13.380;2023-04-06T07:56:15;26.37;30.55
69009;SHT31;56065;52.472;13.380;2023-04-06T07:58:41;25.05;32.07
69009;SHT31;56065;52.472;13.380;2023-04-06T08:01:06;25.69;31.01
69009;SHT31;56065;52.472;13.380;2023-04-06T08:03:33;25.66;31.37
69009;SHT31;56065;52.472;13.380;2023-04-06T08:05:59;26.34;30.79
69009;SHT31;56065;52.472;13.380;2023-04-06T08:08:24;26.27;30.43
69009;SHT31;56065;52.472;13.380;2023-04-06T08:10:50;25.62;30.90
69009;SHT31;56065;52.472;13.380;2023-04-06T08:13:15;25.49;31.23
69009;SHT31;56065;52.472;13.380;2023-04-06T08:15:41;23.17;31.88
69009;SHT31;56065;52.472;13.380;2023-04-06T08:18:08;25.15;31.77
69009;SHT31;56065;52.472;13.380;2023-04-06T08:20:34;26.31;30.13
69009;SHT31;56065;52.472;13.380;2023-04-06T08:22:59;27.16;30.03
69009;SHT31;56065;52.472;13.380;2023-04-06T08:25:25;28.05;29.11
69009;SHT31;56065;52.472;13.380;2023-04-06T08:27:51;27.19;28.39
69009;SHT31;56065;52.472;13.380;2023-04-06T08:30:16;26.92;28.14
69009;SHT31;56065;52.472;13.380;2023-04-06T08:32:44;25.72;28.08
69009;SHT31;56065;52.472;13.380;2023-04-06T08:35:09;26.24;29.04
69009;SHT31;56065;52.472;13.380;2023-04-06T08:37:35;27.67;27.74
69009;SHT31;56065;52.472;13.380;2023-04-06T08:40:00;27.61;26.28
69009;SHT31;56065;52.472;13.380;2023-04-06T08:42:28;23.69;29.15
69009;SHT31;56065;52.472;13.380;2023-04-06T08:44:56;25.53;29.86
69009;SHT31;56065;52.472;13.380;2023-04-06T08:47:22;25.69;28.35
69009;SHT31;56065;52.472;13.380;2023-04-06T08:49:48;23.50;29.71
69009;SHT31;56065;52.472;13.380;2023-04-06T08:52:17;24.94;29.88
69009;SHT31;56065;52.472;13.380;2023-04-06T08:54:45;23.37;29.20
69009;SHT31;56065;52.472;13.380;2023-04-06T08:57:11;24.85;28.96
69009;SHT31;56065;52.472;13.380;2023-04-06T08:59:37;26.58;28.40
69009;SHT31;56065;52.472;13.380;2023-04-06T09:02:04;26.91;27.58
69009;SHT31;56065;52.472;13.380;2023-04-06T09:04:35;27.74;27.42
69009;SHT31;56065;52.472;13.380;2023-04-06T09:07:01;25.55;27.03
69009;SHT31;56065;52.472;13.380;2023-04-06T09:09:27;25.80;27.83
69009;SHT31;56065;52.472;13.380;2023-04-06T09:11:52;26.82;26.91
69009;SHT31;56065;52.472;13.380;2023-04-06T09:14:36;27.84;26.32
69009;SHT31;56065;52.472;13.380;2023-04-06T09:17:02;27.84;26.24
69009;SHT31;56065;52.472;13.380;2023-04-06T09:19:27;27.83;25.67
69009;SHT31;56065;52.472;13.380;2023-04-06T09:22:05;27.36;26.88
69009;SHT31;56065;52.472;13.380;2023-04-06T09:24:45;28.48;26.67
69009;SHT31;56065;52.472;13.380;2023-04-06T09:27:11;27.74;26.26
69009;SHT31;56065;52.472;13.380;2023-04-06T09:29:37;27.39;26.37
69009;SHT31;56065;52.472;13.380;2023-04-06T09:32:04;26.76;26.69
69009;SHT31;56065;52.472;13.380;2023-04-06T09:34:30;25.53;27.26
69009;SHT31;56065;52.472;13.380;2023-04-06T09:36:55;27.74;26.60
69009;SHT31;56065;52.472;13.380;2023-04-06T09:39:21;27.29;26.58
69009;SHT31;56065;52.472;13.380;2023-04-06T09:41:52;26.86;26.36
69009;SHT31;56065;52.472;13.380;2023-04-06T09:44:19;27.44;26.27
69009;SHT31;56065;52.472;13.380;2023-04-06T09:46:46;27.10;25.88
69009;SHT31;56065;52.472;13.380;2023-04-06T09:49:13;28.35;25.39
69009;SHT31;56065;52.472;13.380;2023-04-06T09:52:04;27.37;25.19
69009;SHT31;56065;52.472;13.380;2023-04-06T09:54:31;27.20;25.48
69009;SHT31;56065;52.472;13.380;2023-04-06T09:57:21;28.09;24.05
69009;SHT31;56065;52.472;13.380;2023-04-06T10:05:24;28.31;24.28
69009;SHT31;56065;52.472;13.380;2023-04-06T10:07:53;25.47;25.65
69009;SHT31;56065;52.472;13.380;2023-04-06T10:10:20;26.08;25.95
69009;SHT31;56065;52.472;13.380;2023-04-06T10:12:47;27.00;25.47
69009;SHT31;56065;52.472;13.380;2023-04-06T10:15:13;27.44;24.39
69009;SHT31;56065;52.472;13.380;2023-04-06T10:17:38;26.67;25.30
69009;SHT31;56065;52.472;13.380;2023-04-06T10:25:35;27.84;25.11
69009;SHT31;56065;52.472;13.380;2023-04-06T10:28:05;28.08;25.11
69009;SHT31;56065;52.472;13.380;2023-04-06T10:30:35;27.71;24.40
69009;SHT31;56065;52.472;13.380;2023-04-06T10:33:32;25.98;25.29
69009;SHT31;56065;52.472;13.380;2023-04-06T10:36:15;27.53;24.60
69009;SHT31;56065;52.472;13.380;2023-04-06T10:38:41;27.81;24.22
69009;SHT31;56065;52.472;13.380;2023-04-06T10:41:09;27.19;24.47
69009;SHT31;56065;52.472;13.380;2023-04-06T10:43:36;26.33;25.06
69009;SHT31;56065;52.472;13.380;2023-04-06T10:46:02;25.32;26.43
69009;SHT31;56065;52.472;13.380;2023-04-06T10:48:44;25.49;25.86
69009;SHT31;56065;52.472;13.380;2023-04-06T10:51:14;24.22;26.44
69009;SHT31;56065;52.472;13.380;2023-04-06T10:53:49;26.38;25.37
69009;SHT31;56065;52.472;13.380;2023-04-06T10:56:16;26.25;25.14
69009;SHT31;56065;52.472;13.380;2023-04-06T10:58:49;25.98;25.40
69009;SHT31;56065;52.472;13.380;2023-04-06T11:01:16;25.72;25.56
69009;SHT31;56065;52.472;13.380;2023-04-06T11:03:55;26.94;25.56
69009;SHT31;56065;52.472;13.380;2023-04-06T11:06:25;27.15;24.63
69009;SHT31;56065;52.472;13.380;2023-04-06T11:08:52;26.86;24.94
69009;SHT31;56065;52.472;13.380;2023-04-06T11:11:19;26.17;24.78
69009;SHT31;56065;52.472;13.380;2023-04-06T11:13:56;26.85;24.02
69009;SHT31;56065;52.472;13.380;2023-04-06T11:16:23;26.56;25.37
69009;SHT31;56065;52.472;13.380;2023-04-06T11:19:00;27.78;24.71
69009;SHT31;56065;52.472;13.380;2023-04-06T11:24:18;27.46;24.03
69009;SHT31;56065;52.472;13.380;2023-04-06T11:26:46;27.54;24.25
69009;SHT31;56065;52.472;13.380;2023-04-06T11:29:14;27.67;24.38
69009;SHT31;56065;52.472;13.380;2023-04-06T11:31:54;27.87;23.85
69009;SHT31;56065;52.472;13.380;2023-04-06T11:34:24;25.96;25.17
69009;SHT31;56065;52.472;13.380;2023-04-06T11:36:55;25.86;25.34
69009;SHT31;56065;52.472;13.380;2023-04-06T11:39:23;25.31;24.83
69009;SHT31;56065;52.472;13.380;2023-04-06T11:41:58;25.70;25.10
69009;SHT31;56065;52.472;13.380;2023-04-06T11:44:38;23.75;25.30
69009;SHT31;56065;52.472;13.380;2023-04-06T11:47:06;23.89;25.53
69009;SHT31;56065;52.472;13.380;2023-04-06T11:49:34;23.94;26.25
69009;SHT31;56065;52.472;13.380;2023-04-06T11:52:01;24.19;26.12
69009;SHT31;56065;52.472;13.380;2023-04-06T11:54:34;25.32;25.46
69009;SHT31;56065;52.472;13.380;2023-04-06T11:57:01;25.11;27.29
69009;SHT31;56065;52.472;13.380;2023-04-06T11:59:27;26.23;25.34
69009;SHT31;56065;52.472;13.380;2023-04-06T12:01:53;25.35;25.29
69009;SHT31;56065;52.472;13.380;2023-04-06T12:04:19;25.92;25.22
69009;SHT31;56065;52.472;13.380;2023-04-06T12:06:44;25.18;24.89
69009;SHT31;56065;52.472;13.380;2023-04-06T12:09:10;24.02;25.60
69009;SHT31;56065;52.472;13.380;2023-04-06T12:11:35;24.39;26.15
69009;SHT31;56065;52.472;13.380;2023-04-06T12:14:01;23.59;25.86
69009;SHT31;56065;52.472;13.380;2023-04-06T12:16:30;25.26;25.62
69009;SHT31;56065;52.472;13.380;2023-04-06T12:18:55;25.93;24.86
69009;SHT31;56065;52.472;13.380;2023-04-06T12:21:21;25.36;24.78
69009;SHT31;56065;52.472;13.380;2023-04-06T12:23:46;24.67;25.74
69009;SHT31;56065;52.472;13.380;2023-04-06T12:26:12;24.78;25.26
69009;SHT31;56065;52.472;13.380;2023-04-06T12:28:37;24.73;25.81
69009;SHT31;56065;52.472;13.380;2023-04-06T12:31:02;24.98;25.61
69009;SHT31;56065;52.472;13.380;2023-04-06T12:33:28;24.47;26.04
69009;SHT31;56065;52.472;13.380;2023-04-06T12:35:53;24.10;25.45
69009;SHT31;56065;52.472;13.380;2023-04-06T12:38:19;22.67;27.05
69009;SHT31;56065;52.472;13.380;2023-04-06T12:40:45;22.63;27.13
69009;SHT31;56065;52.472;13.380;2023-04-06T12:43:11;22.29;28.52
69009;SHT31;56065;52.472;13.380;2023-04-06T12:45:38;22.05;27.96
69009;SHT31;56065;52.472;13.380;2023-04-06T12:48:04;21.23;28.32
69009;SHT31;56065;52.472;13.380;2023-04-06T12:50:29;21.22;28.58
69009;SHT31;56065;52.472;13.380;2023-04-06T12:52:55;21.39;28.05
69009;SHT31;56065;52.472;13.380;2023-04-06T12:55:20;22.36;28.60
69009;SHT31;56065;52.472;13.380;2023-04-06T12:57:47;23.13;26.86
69009;SHT31;56065;52.472;13.380;2023-04-06T13:00:13;23.08;26.22
69009;SHT31;56065;52.472;13.380;2023-04-06T13:02:39;22.82;27.21
69009;SHT31;56065;52.472;13.380;2023-04-06T13:05:05;23.11;26.08
69009;SHT31;56065;52.472;13.380;2023-04-06T13:07:31;22.00;27.43
69009;SHT31;56065;52.472;13.380;2023-04-06T13:09:56;21.29;27.58
69009;SHT31;56065;52.472;13.380;2023-04-06T13:12:21;20.34;28.67
69009;SHT31;56065;52.472;13.380;2023-04-06T13:14:47;21.78;27.57
69009;SHT31;56065;52.472;13.380;2023-04-06T13:17:16;22.48;27.13
69009;SHT31;56065;52.472;13.380;2023-04-06T13:19:42;23.28;27.63
69009;SHT31;56065;52.472;13.380;2023-04-06T13:22:08;24.37;27.02
69009;SHT31;56065;52.472;13.380;2023-04-06T13:24:33;24.05;26.92
69009;SHT31;56065;52.472;13.380;2023-04-06T13:26:59;23.75;27.54
69009;SHT31;56065;52.472;13.380;2023-04-06T13:29:25;23.16;26.60
69009;SHT31;56065;52.472;13.380;2023-04-06T13:31:51;22.39;27.57
69009;SHT31;56065;52.472;13.380;2023-04-06T13:34:16;22.57;27.93
69009;SHT31;56065;52.472;13.380;2023-04-06T13:36:42;22.87;27.56
69009;SHT31;56065;52.472;13.380;2023-04-06T13:39:08;22.70;28.28
69009;SHT31;56065;52.472;13.380;2023-04-06T13:41:33;22.69;28.27
69009;SHT31;56065;52.472;13.380;2023-04-06T13:43:58;23.43;28.34
69009;SHT31;56065;52.472;13.380;2023-04-06T13:46:24;23.48;27.98
69009;SHT31;56065;52.472;13.380;2023-04-06T13:48:50;23.92;27.09
69009;SHT31;56065;52.472;13.380;2023-04-06T13:51:16;24.17;27.28
69009;SHT31;56065;52.472;13.380;2023-04-06T13:53:41;24.73;26.99
69009;SHT31;56065;52.472;13.380;2023-04-06T13:56:07;25.03;26.50
69009;SHT31;56065;52.472;13.380;2023-04-06T13:58:33;24.59;26.85
69009;SHT31;56065;52.472;13.380;2023-04-06T14:01:06;24.35;26.61
69009;SHT31;56065;52.472;13.380;2023-04-06T14:03:33;24.56;26.43
69009;SHT31;56065;52.472;13.380;2023-04-06T14:05:59;24.37;27.08
69009;SHT31;56065;52.472;13.380;2023-04-06T14:08:24;24.54;26.34
69009;SHT31;56065;52.472;13.380;2023-04-06T14:10:50;24.41;26.44
69009;SHT31;56065;52.472;13.380;2023-04-06T14:13:16;24.17;26.52
69009;SHT31;56065;52.472;13.380;2023-04-06T14:15:42;23.74;27.39
69009;SHT31;56065;52.472;13.380;2023-04-06T14:18:08;23.68;27.81
69009;SHT31;56065;52.472;13.380;2023-04-06T14:20:34;23.66;27.01
69009;SHT31;56065;52.472;13.380;2023-04-06T14:23:00;23.85;27.79
69009;SHT31;56065;52.472;13.380;2023-04-06T14:25:26;24.23;27.17
69009;SHT31;56065;52.472;13.380;2023-04-06T14:27:51;23.81;27.28
69009;SHT31;56065;52.472;13.380;2023-04-06T14:30:17;23.75;26.93
69009;SHT31;56065;52.472;13.380;2023-04-06T14:32:43;24.12;27.12
69009;SHT31;56065;52.472;13.380;2023-04-06T14:35:09;23.62;27.03
69009;SHT31;56065;52.472;13.380;2023-04-06T14:37:35;21.94;28.38
69009;SHT31;56065;52.472;13.380;2023-04-06T14:40:00;22.49;28.87
69009;SHT31;56065;52.472;13.380;2023-04-06T14:42:26;21.73;29.10
69009;SHT31;56065;52.472;13.380;2023-04-06T14:44:51;22.05;29.04
69009;SHT31;56065;52.472;13.380;2023-04-06T14:47:18;22.42;27.99
69009;SHT31;56065;52.472;13.380;2023-04-06T14:49:46;22.31;28.49
69009;SHT31;56065;52.472;13.380;2023-04-06T14:52:12;22.44;28.53
69009;SHT31;56065;52.472;13.380;2023-04-06T14:54:38;22.34;28.27
69009;SHT31;56065;52.472;13.380;2023-04-06T14:57:03;21.78;27.93
69009;SHT31;56065;52.472;13.380;2023-04-06T14:59:28;20.58;29.43
69009;SHT31;56065;52.472;13.380;2023-04-06T15:01:54;21.09;29.01
69009;SHT31;56065;52.472;13.380;2023-04-06T15:04:19;20.94;29.57
69009;SHT31;56065;52.472;13.380;2023-04-06T15:06:45;20.95;29.53
69009;SHT31;56065;52.472;13.380;2023-04-06T15:09:10;21.07;30.25
69009;SHT31;56065;52.472;13.380;2023-04-06T15:11:35;21.22;28.98
69009;SHT31;56065;52.472;13.380;2023-04-06T15:14:01;20.91;29.05
69009;SHT31;56065;52.472;13.380;2023-04-06T15:16:27;20.68;29.52
69009;SHT31;56065;52.472;13.380;2023-04-06T15:18:57;20.55;29.19
69009;SHT31;56065;52.472;13.380;2023-04-06T15:21:22;20.24;29.57
69009;SHT31;56065;52.472;13.380;2023-04-06T15:23:47;20.07;30.06
69009;SHT31;56065;52.472;13.380;2023-04-06T15:26:13;19.72;30.59
69009;SHT31;56065;52.472;13.380;2023-04-06T15:28:38;19.11;31.05
69009;SHT31;56065;52.472;13.380;2023-04-06T15:31:13;19.00;31.17